Time;durP1;ratioP1;P1;durP2;ratioP2;P2;SDS_P1;SDS_P2;PMS_P1;PMS_P2;Temp;Humidity;BMP_temperature;BMP_pressure;BME280_temperature;BME280_humidity;BME280_pressure;Samples;Min_cycle;Max_cycle;Signal;HPM_P1;HPM_P2
2022/08/13 00:00:59;;;;;;;;;7.75;6.75;;;;;;;;5104619;27;61712;-82
2022/08/13 00:03:30;;;;;;;;;10.75;8.25;;;;;;;;5104739;27;61688;-82
2022/08/13 00:05:56;;;;;;;;;13.50;12.50;;;;;;;;5105560;27;62816;-82
2022/08/13 00:08:25;;;;;;;;;9.50;8.50;;;;;;;;5104722;27;61972;-82
2022/08/13 00:10:50;;;;;;;;;9.75;9.75;;;;;;;;5104377;27;62032;-82
2022/08/13 00:13:17;;;;;;;;;11.00;9.50;;;;;;;;5104384;27;61847;-82
2022/08/13 00:15:43;;;;;;;;;12.50;10.00;;;;;;;;5104093;27;63617;-82
2022/08/13 00:18:10;;;;;;;;;11.00;10.75;;;;;;;;5104294;27;62078;-82
2022/08/13 00:20:39;;;;;;;;;10.75;10.75;;;;;;;;5106467;27;61869;-82
2022/08/13 00:23:09;;;;;;;;;10.25;9.25;;;;;;;;5103968;27;62018;-82
2022/08/13 00:25:34;;;;;;;;;12.25;11.00;;;;;;;;5103499;27;63894;-82
2022/08/13 00:28:02;;;;;;;;;14.75;6.75;;;;;;;;5105630;27;61836;-81
2022/08/13 00:30:31;;;;;;;;;12.75;11.50;;;;;;;;5104382;27;61929;-81
2022/08/13 00:32:59;;;;;;;;;10.50;10.25;;;;;;;;5104177;27;62188;-81
2022/08/13 00:35:25;;;;;;;;;13.50;12.00;;;;;;;;5105005;27;61842;-82
2022/08/13 00:37:50;;;;;;;;;9.25;9.00;;;;;;;;5104233;27;61803;-82
2022/08/13 00:40:17;;;;;;;;;10.25;9.75;;;;;;;;5103607;27;61848;-81
2022/08/13 00:42:43;;;;;;;;;9.50;8.75;;;;;;;;5104206;27;62019;-82
2022/08/13 00:45:09;;;;;;;;;10.50;9.00;;;;;;;;5102555;27;63202;-82
2022/08/13 00:50:19;;;;;;;;;9.00;9.00;;;;;;;;5105444;27;61677;-82
2022/08/13 00:52:44;;;;;;;;;12.50;10.25;;;;;;;;5105090;27;61615;-82
2022/08/13 00:55:16;;;;;;;;;8.50;7.50;;;;;;;;5103734;27;62400;-82
2022/08/13 00:57:43;;;;;;;;;7.00;7.00;;;;;;;;5105565;27;61864;-82
2022/08/13 01:00:13;;;;;;;;;5.50;3.00;;;;;;;;5103753;27;61952;-82
2022/08/13 01:02:42;;;;;;;;;10.25;8.50;;;;;;;;5105128;27;61917;-82
2022/08/13 01:05:09;;;;;;;;;10.25;6.25;;;;;;;;5104022;27;61767;-82
2022/08/13 01:07:35;;;;;;;;;7.00;6.00;;;;;;;;5104830;27;61864;-81
2022/08/13 01:10:00;;;;;;;;;7.25;7.25;;;;;;;;5103949;27;62006;-82
2022/08/13 01:12:27;;;;;;;;;7.25;7.25;;;;;;;;5103919;27;62013;-82
2022/08/13 01:14:55;;;;;;;;;5.50;5.50;;;;;;;;5103119;27;63666;-82
2022/08/13 01:17:22;;;;;;;;;10.25;8.00;;;;;;;;5103232;27;61909;-82
2022/08/13 01:19:49;;;;;;;;;8.50;7.25;;;;;;;;5105026;27;61898;-82
2022/08/13 01:22:15;;;;;;;;;7.25;5.75;;;;;;;;5103113;27;62164;-82
2022/08/13 01:24:41;;;;;;;;;7.75;6.25;;;;;;;;5103629;27;61761;-82
2022/08/13 01:27:08;;;;;;;;;7.00;5.00;;;;;;;;5103725;27;61867;-82
2022/08/13 01:29:35;;;;;;;;;7.75;7.50;;;;;;;;5104846;27;61934;-82
2022/08/13 01:32:00;;;;;;;;;6.50;6.50;;;;;;;;5103499;27;61798;-82
2022/08/13 01:34:26;;;;;;;;;5.75;5.25;;;;;;;;5103525;27;61894;-82
2022/08/13 01:36:54;;;;;;;;;10.00;7.00;;;;;;;;5104366;27;61745;-82
2022/08/13 01:39:19;;;;;;;;;7.50;6.50;;;;;;;;5104765;27;61666;-82
2022/08/13 01:41:45;;;;;;;;;7.00;6.75;;;;;;;;5102791;27;61744;-81
2022/08/13 01:44:11;;;;;;;;;10.00;8.00;;;;;;;;5102327;27;63728;-81
2022/08/13 01:52:06;;;;;;;;;4.50;4.50;;;;;;;;5103909;27;61672;-82
2022/08/13 01:54:32;;;;;;;;;6.50;6.50;;;;;;;;5103340;27;61749;-82
2022/08/13 01:56:59;;;;;;;;;4.50;4.50;;;;;;;;5103221;27;61667;-82
2022/08/13 01:59:24;;;;;;;;;5.50;5.50;;;;;;;;5103093;27;61958;-82
2022/08/13 02:01:50;;;;;;;;;6.25;6.00;;;;;;;;5104330;27;61753;-82
2022/08/13 02:04:15;;;;;;;;;4.50;4.50;;;;;;;;5102171;27;61935;-80
2022/08/13 02:06:40;;;;;;;;;4.50;3.25;;;;;;;;5102366;27;61847;-82
2022/08/13 02:09:06;;;;;;;;;8.50;6.75;;;;;;;;5102986;27;61798;-82
2022/08/13 02:11:33;;;;;;;;;6.75;5.75;;;;;;;;5104189;27;61750;-82
2022/08/13 02:14:00;;;;;;;;;8.00;4.75;;;;;;;;5103366;27;62162;-82
2022/08/13 02:16:30;;;;;;;;;7.00;5.00;;;;;;;;5102645;27;61983;-82
2022/08/13 02:18:55;;;;;;;;;6.00;5.25;;;;;;;;5102306;27;61859;-81
2022/08/13 02:21:22;;;;;;;;;8.00;6.00;;;;;;;;5102176;27;61829;-82
2022/08/13 02:23:56;;;;;;;;;5.75;4.00;;;;;;;;5102779;27;61805;-82
2022/08/13 02:26:23;;;;;;;;;5.00;5.00;;;;;;;;5102498;27;61767;-82
2022/08/13 02:28:49;;;;;;;;;7.00;5.00;;;;;;;;5103853;27;61927;-82
2022/08/13 02:31:15;;;;;;;;;5.75;5.75;;;;;;;;5104032;27;61754;-82
2022/08/13 02:33:40;;;;;;;;;5.25;5.25;;;;;;;;5101720;27;63636;-82
2022/08/13 02:36:10;;;;;;;;;6.00;5.50;;;;;;;;5103371;27;61936;-82
2022/08/13 02:38:36;;;;;;;;;6.00;4.75;;;;;;;;5103587;27;61944;-81
2022/08/13 02:43:46;;;;;;;;;5.25;4.25;;;;;;;;5103088;27;61702;-81
2022/08/13 02:46:12;;;;;;;;;7.00;5.75;;;;;;;;5102127;27;61890;-82
2022/08/13 02:48:40;;;;;;;;;8.00;7.00;;;;;;;;5103291;27;61759;-81
2022/08/13 02:51:05;;;;;;;;;10.25;6.00;;;;;;;;5103216;27;61877;-82
2022/08/13 02:53:31;;;;;;;;;10.50;7.00;;;;;;;;5101201;27;63697;-82
2022/08/13 02:55:56;;;;;;;;;11.75;7.25;;;;;;;;5102448;27;61952;-82
2022/08/13 02:58:22;;;;;;;;;7.25;6.50;;;;;;;;5103339;27;61924;-82
2022/08/13 03:00:48;;;;;;;;;7.50;5.75;;;;;;;;5103605;27;61951;-82
2022/08/13 03:03:14;;;;;;;;;9.00;7.50;;;;;;;;5100852;27;64082;-81
2022/08/13 03:05:40;;;;;;;;;9.25;8.25;;;;;;;;5102879;27;61801;-82
2022/08/13 03:08:05;;;;;;;;;8.50;7.50;;;;;;;;5103687;27;62015;-82
2022/08/13 03:10:30;;;;;;;;;11.75;8.50;;;;;;;;5101901;27;61790;-82
2022/08/13 03:13:01;;;;;;;;;8.00;6.25;;;;;;;;5101293;27;63648;-82
2022/08/13 03:15:27;;;;;;;;;7.75;7.00;;;;;;;;5104838;27;61837;-82
2022/08/13 03:17:52;;;;;;;;;8.75;7.50;;;;;;;;5104856;27;62013;-81
2022/08/13 03:20:18;;;;;;;;;7.00;5.75;;;;;;;;5107036;27;61753;-82
2022/08/13 03:22:51;;;;;;;;;10.75;7.25;;;;;;;;5105783;27;63174;-82
2022/08/13 03:25:16;;;;;;;;;9.75;8.25;;;;;;;;5106376;27;61934;-82
2022/08/13 03:27:42;;;;;;;;;10.25;5.50;;;;;;;;5106703;27;61726;-82
2022/08/13 03:30:09;;;;;;;;;8.50;7.50;;;;;;;;5105818;27;62035;-82
2022/08/13 03:32:39;;;;;;;;;6.75;6.50;;;;;;;;5105558;27;62694;-81
2022/08/13 03:35:04;;;;;;;;;6.50;6.00;;;;;;;;5104943;27;61876;-82
2022/08/13 03:37:29;;;;;;;;;7.75;5.00;;;;;;;;5106537;27;61908;-82
2022/08/13 03:39:55;;;;;;;;;6.75;6.00;;;;;;;;5106974;27;61785;-81
2022/08/13 03:42:20;;;;;;;;;6.50;5.50;;;;;;;;5104382;27;63891;-82
2022/08/13 03:44:45;;;;;;;;;4.75;4.75;;;;;;;;5104802;27;61927;-82
2022/08/13 03:47:14;;;;;;;;;5.00;5.00;;;;;;;;5105990;27;62019;-81
2022/08/13 03:49:39;;;;;;;;;4.50;4.50;;;;;;;;5106434;27;62084;-82
2022/08/13 03:52:04;;;;;;;;;8.25;5.00;;;;;;;;5104351;27;64753;-81
2022/08/13 03:54:29;;;;;;;;;5.75;5.75;;;;;;;;5105980;27;61773;-82
2022/08/13 03:56:55;;;;;;;;;6.50;6.50;;;;;;;;5106327;27;61760;-81
2022/08/13 03:59:20;;;;;;;;;5.50;4.75;;;;;;;;5104884;27;62014;-82
2022/08/13 04:01:47;;;;;;;;;5.50;5.50;;;;;;;;5105061;27;62030;-81
2022/08/13 04:04:12;;;;;;;;;5.00;5.00;;;;;;;;5104556;27;61838;-82
2022/08/13 04:06:38;;;;;;;;;8.25;5.00;;;;;;;;5104664;27;61911;-83
2022/08/13 04:09:04;;;;;;;;;4.75;3.25;;;;;;;;5104845;27;61777;-82
2022/08/13 04:11:29;;;;;;;;;4.00;4.00;;;;;;;;5105468;27;61760;-82
2022/08/13 04:13:54;;;;;;;;;5.25;5.25;;;;;;;;5104743;27;61729;-82
2022/08/13 04:16:22;;;;;;;;;6.50;6.25;;;;;;;;5104361;27;61787;-81
2022/08/13 04:18:48;;;;;;;;;6.00;4.25;;;;;;;;5104333;27;61754;-82
2022/08/13 04:21:15;;;;;;;;;7.50;6.25;;;;;;;;5103902;27;64652;-82
2022/08/13 04:23:41;;;;;;;;;10.50;6.75;;;;;;;;5103859;27;61903;-82
2022/08/13 04:26:08;;;;;;;;;6.50;6.50;;;;;;;;5105184;27;61757;-82
2022/08/13 04:28:34;;;;;;;;;8.75;7.25;;;;;;;;5104448;27;61769;-82
2022/08/13 04:31:00;;;;;;;;;7.25;7.00;;;;;;;;5104712;27;62936;-82
2022/08/13 04:33:26;;;;;;;;;6.50;6.25;;;;;;;;5105266;27;61768;-81
2022/08/13 04:35:52;;;;;;;;;6.50;6.00;;;;;;;;5104465;27;61816;-82
2022/08/13 04:38:17;;;;;;;;;6.25;5.75;;;;;;;;5104574;27;61763;-82
2022/08/13 04:40:44;;;;;;;;;5.00;4.75;;;;;;;;5104629;27;62156;-81
2022/08/13 04:43:10;;;;;;;;;4.00;4.00;;;;;;;;5104028;27;61777;-81
2022/08/13 04:45:36;;;;;;;;;5.25;4.00;;;;;;;;5088805;27;61791;-82
2022/08/13 04:48:09;;;;;;;;;6.50;6.00;;;;;;;;5085076;28;61776;-81
2022/08/13 04:50:35;;;;;;;;;5.25;5.25;;;;;;;;5084278;28;61840;-81
2022/08/13 04:53:02;;;;;;;;;7.50;4.00;;;;;;;;5083194;28;61960;-81
2022/08/13 04:55:27;;;;;;;;;4.50;4.00;;;;;;;;5083479;28;61966;-81
2022/08/13 04:57:53;;;;;;;;;5.25;4.00;;;;;;;;5083536;28;61781;-82
2022/08/13 05:00:20;;;;;;;;;3.75;3.75;;;;;;;;5082629;28;64609;-82
2022/08/13 05:02:46;;;;;;;;;3.50;3.50;;;;;;;;5084676;28;61647;-81
2022/08/13 05:05:11;;;;;;;;;4.75;3.25;;;;;;;;5082988;28;61876;-82
2022/08/13 05:07:37;;;;;;;;;4.00;4.00;;;;;;;;5084938;28;62138;-82
2022/08/13 05:10:03;;;;;;;;;3.50;3.50;;;;;;;;5082950;28;63677;-82
2022/08/13 05:12:33;;;;;;;;;4.00;2.50;;;;;;;;5082980;28;61737;-81
2022/08/13 05:14:58;;;;;;;;;4.00;4.00;;;;;;;;5084328;28;61759;-82
2022/08/13 05:17:25;;;;;;;;;4.00;3.50;;;;;;;;5083599;28;61726;-82
2022/08/13 05:19:50;;;;;;;;;4.50;4.50;;;;;;;;5083458;28;61916;-82
2022/08/13 05:22:15;;;;;;;;;3.75;3.50;;;;;;;;5084617;28;61870;-82
2022/08/13 05:24:41;;;;;;;;;5.00;3.25;;;;;;;;5082459;28;61813;-82
2022/08/13 05:27:06;;;;;;;;;6.75;5.00;;;;;;;;5083206;28;61712;-81
2022/08/13 05:29:31;;;;;;;;;5.75;5.75;;;;;;;;5082271;28;64765;-82
2022/08/13 05:31:57;;;;;;;;;5.00;5.00;;;;;;;;5084150;28;61758;-82
2022/08/13 05:34:23;;;;;;;;;5.75;5.00;;;;;;;;5084051;28;62196;-82
2022/08/13 05:36:49;;;;;;;;;6.00;6.00;;;;;;;;5084389;28;61976;-82
2022/08/13 05:39:14;;;;;;;;;5.25;4.00;;;;;;;;5083754;28;63082;-82
2022/08/13 05:41:41;;;;;;;;;8.00;5.75;;;;;;;;5082375;28;61769;-82
2022/08/13 05:44:08;;;;;;;;;6.00;5.00;;;;;;;;5086065;27;61807;-81
2022/08/13 05:46:33;;;;;;;;;4.67;4.33;;;;;;;;5103340;27;61820;-81
2022/08/13 05:48:59;;;;;;;;;5.25;3.75;;;;;;;;5102070;27;63689;-81
2022/08/13 05:51:25;;;;;;;;;4.00;4.00;;;;;;;;5103105;27;61925;-82
2022/08/13 05:53:54;;;;;;;;;4.25;4.25;;;;;;;;5102849;27;61777;-82
2022/08/13 05:56:21;;;;;;;;;5.50;5.50;;;;;;;;5103087;27;62189;-81
2022/08/13 05:58:47;;;;;;;;;4.00;4.00;;;;;;;;5102006;27;64104;-82
2022/08/13 06:03:56;;;;;;;;;4.00;3.00;;;;;;;;5103832;27;62087;-82
2022/08/13 06:06:22;;;;;;;;;3.75;3.75;;;;;;;;5104318;27;61975;-82
2022/08/13 06:08:47;;;;;;;;;6.75;3.00;;;;;;;;5102215;27;64446;-82
2022/08/13 06:11:17;;;;;;;;;3.25;3.25;;;;;;;;5104136;27;62022;-82
2022/08/13 06:13:43;;;;;;;;;4.00;4.00;;;;;;;;5103544;27;61829;-81
2022/08/13 06:16:11;;;;;;;;;4.75;4.75;;;;;;;;5102911;27;61775;-82
2022/08/13 06:18:37;;;;;;;;;7.25;4.75;;;;;;;;5103198;27;62008;-81
2022/08/13 06:21:04;;;;;;;;;3.00;3.00;;;;;;;;5103825;27;61798;-81
2022/08/13 06:23:30;;;;;;;;;4.00;4.00;;;;;;;;5103420;27;61686;-81
2022/08/13 06:25:57;;;;;;;;;4.50;4.00;;;;;;;;5102422;27;61700;-82
2022/08/13 06:28:25;;;;;;;;;3.75;3.75;;;;;;;;5101948;27;63813;-81
2022/08/13 06:30:52;;;;;;;;;6.00;3.25;;;;;;;;5102459;27;61748;-81
2022/08/13 06:33:21;;;;;;;;;5.00;3.50;;;;;;;;5103588;27;62009;-82
2022/08/13 06:35:49;;;;;;;;;4.00;3.75;;;;;;;;5102681;27;61732;-81
2022/08/13 06:38:15;;;;;;;;;5.50;5.00;;;;;;;;5101626;27;64708;-82
2022/08/13 06:40:42;;;;;;;;;4.75;4.00;;;;;;;;5103562;27;61863;-82
2022/08/13 06:43:07;;;;;;;;;4.00;3.67;;;;;;;;5103026;27;61787;-82
2022/08/13 06:45:33;;;;;;;;;4.67;4.67;;;;;;;;5102412;27;62055;-82
2022/08/13 06:47:59;;;;;;;;;4.00;4.00;;;;;;;;5101306;27;64508;-81
2022/08/13 06:50:25;;;;;;;;;3.67;2.33;;;;;;;;5103064;27;61895;-82
2022/08/13 06:52:50;;;;;;;;;5.33;5.00;;;;;;;;5101925;27;61867;-81
2022/08/13 06:55:17;;;;;;;;;5.00;3.67;;;;;;;;5103082;27;61688;-81
2022/08/13 06:57:45;;;;;;;;;5.00;5.00;;;;;;;;5103235;27;61888;-82
2022/08/13 07:00:11;;;;;;;;;2.33;2.33;;;;;;;;5102083;27;61746;-82
2022/08/13 07:02:37;;;;;;;;;4.67;4.67;;;;;;;;5101928;27;61946;-81
2022/08/13 07:05:04;;;;;;;;;3.33;3.33;;;;;;;;5101700;27;61787;-82
2022/08/13 07:07:31;;;;;;;;;4.00;4.00;;;;;;;;5102861;27;62785;-82
2022/08/13 07:09:56;;;;;;;;;6.00;5.00;;;;;;;;5101500;27;61812;-82
2022/08/13 07:12:22;;;;;;;;;3.33;3.33;;;;;;;;5103239;27;61939;-82
2022/08/13 07:14:47;;;;;;;;;3.67;3.00;;;;;;;;5103310;27;61773;-81
2022/08/13 07:17:12;;;;;;;;;4.33;3.00;;;;;;;;5101277;27;63664;-82
2022/08/13 07:19:38;;;;;;;;;4.00;4.00;;;;;;;;5101787;27;61843;-82
2022/08/13 07:22:04;;;;;;;;;3.33;3.33;;;;;;;;5101656;27;62442;-82
2022/08/13 07:24:29;;;;;;;;;4.33;4.00;;;;;;;;5101318;27;61724;-82
2022/08/13 07:26:59;;;;;;;;;4.67;3.33;;;;;;;;5102460;27;63352;-82
2022/08/13 07:29:26;;;;;;;;;3.67;3.67;;;;;;;;5103226;27;61698;-82
2022/08/13 07:31:53;;;;;;;;;4.00;4.00;;;;;;;;5103141;27;61824;-82
2022/08/13 07:34:19;;;;;;;;;5.33;4.00;;;;;;;;5102936;27;61628;-81
2022/08/13 07:36:45;;;;;;;;;4.33;4.33;;;;;;;;5101051;27;64134;-82
2022/08/13 07:39:11;;;;;;;;;9.00;5.00;;;;;;;;5102449;27;61735;-81
2022/08/13 07:41:41;;;;;;;;;5.00;5.00;;;;;;;;5102709;27;61840;-81
2022/08/13 07:44:10;;;;;;;;;5.33;4.33;;;;;;;;5102690;27;62075;-81
2022/08/13 07:46:42;;;;;;;;;3.33;3.33;;;;;;;;5100743;27;63968;-82
2022/08/13 07:49:09;;;;;;;;;4.00;4.00;;;;;;;;5102483;27;61972;-82
2022/08/13 07:51:37;;;;;;;;;5.00;5.00;;;;;;;;5101464;27;61868;-82
2022/08/13 07:54:05;;;;;;;;;5.00;5.00;;;;;;;;5101780;27;62143;-81
2022/08/13 07:56:32;;;;;;;;;4.00;3.00;;;;;;;;5100801;27;63703;-82
2022/08/13 07:59:08;;;;;;;;;3.00;3.00;;;;;;;;5101432;27;61795;-81
2022/08/13 08:01:43;;;;;;;;;5.75;4.00;;;;;;;;5103234;27;61840;-81
2022/08/13 08:04:08;;;;;;;;;5.00;3.33;;;;;;;;5104488;27;62014;-81
2022/08/13 08:06:34;;;;;;;;;4.00;3.75;;;;;;;;5104203;27;63977;-82
2022/08/13 08:08:59;;;;;;;;;4.00;3.33;;;;;;;;5105764;27;61881;-81
2022/08/13 08:14:10;;;;;;;;;4.00;4.00;;;;;;;;5106336;27;61841;-81
2022/08/13 08:16:36;;;;;;;;;4.67;4.33;;;;;;;;5105465;27;62776;-81
2022/08/13 08:19:03;;;;;;;;;3.67;3.00;;;;;;;;5103820;27;61968;-81
2022/08/13 08:21:28;;;;;;;;;4.00;3.33;;;;;;;;5105996;27;61982;-81
2022/08/13 08:23:57;;;;;;;;;4.00;4.00;;;;;;;;5103724;27;61830;-81
2022/08/13 08:26:26;;;;;;;;;4.33;2.00;;;;;;;;5105414;27;61977;-82
2022/08/13 08:28:53;;;;;;;;;2.67;2.67;;;;;;;;5104516;27;62006;-81
2022/08/13 08:31:19;;;;;;;;;3.00;3.00;;;;;;;;5104084;27;62138;-82
2022/08/13 08:33:47;;;;;;;;;3.00;2.33;;;;;;;;5105681;27;61744;-81
2022/08/13 08:36:12;;;;;;;;;3.00;3.00;;;;;;;;5103345;27;63675;-81
2022/08/13 08:44:16;;;;;;;;;3.33;3.33;;;;;;;;5105276;27;61710;-81
2022/08/13 08:46:41;;;;;;;;;4.00;2.67;;;;;;;;5103585;27;63401;-82
2022/08/13 08:49:07;;;;;;;;;3.33;3.33;;;;;;;;5103833;27;61736;-81
2022/08/13 08:51:33;;;;;;;;;2.67;2.67;;;;;;;;5103789;27;61807;-82
2022/08/13 08:53:59;;;;;;;;;2.67;1.67;;;;;;;;5105256;27;61790;-81
2022/08/13 08:56:24;;;;;;;;;4.33;3.00;;;;;;;;5104824;27;61673;-82
2022/08/13 08:58:54;;;;;;;;;2.33;2.33;;;;;;;;5105354;27;61594;-82
2022/08/13 09:01:24;;;;;;;;;4.67;3.67;;;;;;;;5103881;27;62164;-82
2022/08/13 09:03:49;;;;;;;;;3.33;1.67;;;;;;;;5103809;27;61854;-82
2022/08/13 09:06:15;;;;;;;;;4.67;3.67;;;;;;;;5104153;27;61931;-81
2022/08/13 09:08:40;;;;;;;;;3.67;3.67;;;;;;;;5103790;27;61889;-82
2022/08/13 09:11:06;;;;;;;;;3.67;3.67;;;;;;;;5104886;27;61781;-81
2022/08/13 09:13:32;;;;;;;;;3.33;2.33;;;;;;;;5105006;27;61764;-82
2022/08/13 09:15:57;;;;;;;;;2.67;2.67;;;;;;;;5104645;27;61783;-81
2022/08/13 09:18:23;;;;;;;;;2.33;2.33;;;;;;;;5104501;27;61845;-81
2022/08/13 09:20:49;;;;;;;;;4.00;3.00;;;;;;;;5103453;27;61811;-81
2022/08/13 09:23:15;;;;;;;;;1.67;1.67;;;;;;;;5104226;27;61748;-81
2022/08/13 09:25:48;;;;;;;;;4.00;4.00;;;;;;;;5104394;27;62803;-82
2022/08/13 09:28:23;;;;;;;;;5.00;2.67;;;;;;;;5104830;27;61892;-82
2022/08/13 09:30:49;;;;;;;;;4.00;3.00;;;;;;;;5104927;27;61807;-82
2022/08/13 09:33:15;;;;;;;;;3.00;3.00;;;;;;;;5104106;27;61940;-81
2022/08/13 09:35:41;;;;;;;;;2.67;2.67;;;;;;;;5102582;27;63993;-82
2022/08/13 09:38:07;;;;;;;;;3.67;2.67;;;;;;;;5104839;27;61625;-81
2022/08/13 09:40:35;;;;;;;;;2.00;2.00;;;;;;;;5104756;27;61604;-82
2022/08/13 09:43:02;;;;;;;;;3.33;3.33;;;;;;;;5103343;27;61827;-82
2022/08/13 09:45:29;;;;;;;;;4.00;2.67;;;;;;;;5103317;27;62640;-81
2022/08/13 09:47:55;;;;;;;;;1.67;1.67;;;;;;;;5104542;27;61825;-81
2022/08/13 09:50:21;;;;;;;;;4.67;2.33;;;;;;;;5102238;27;61944;-82
2022/08/13 09:52:47;;;;;;;;;3.00;3.00;;;;;;;;5104545;27;61768;-82
2022/08/13 09:55:12;;;;;;;;;3.67;2.00;;;;;;;;5101898;27;63764;-82
2022/08/13 09:57:48;;;;;;;;;2.00;2.00;;;;;;;;5102824;27;61712;-81
2022/08/13 10:00:16;;;;;;;;;3.33;2.33;;;;;;;;5104345;27;61915;-82
2022/08/13 10:02:44;;;;;;;;;3.67;3.00;;;;;;;;5104538;27;61802;-82
2022/08/13 10:05:10;;;;;;;;;3.00;3.00;;;;;;;;5101529;27;63679;-82
2022/08/13 10:07:37;;;;;;;;;2.00;2.00;;;;;;;;5102790;27;62274;-82
2022/08/13 10:10:03;;;;;;;;;2.33;2.33;;;;;;;;5102672;27;62179;-82
2022/08/13 10:12:28;;;;;;;;;3.33;2.33;;;;;;;;5104113;27;61796;-82
2022/08/13 10:14:53;;;;;;;;;2.00;2.00;;;;;;;;5103665;27;62810;-82
2022/08/13 10:17:18;;;;;;;;;1.33;1.33;;;;;;;;5102201;27;61784;-81
2022/08/13 10:19:44;;;;;;;;;3.00;3.00;;;;;;;;5102106;27;61838;-82
2022/08/13 10:22:09;;;;;;;;;2.00;2.00;;;;;;;;5102911;27;62195;-82
2022/08/13 10:24:35;;;;;;;;;4.00;2.00;;;;;;;;5102060;27;62730;-82
2022/08/13 10:27:00;;;;;;;;;2.00;2.00;;;;;;;;5104069;27;61970;-82
2022/08/13 10:29:25;;;;;;;;;2.67;2.00;;;;;;;;5102589;27;61887;-82
2022/08/13 10:31:50;;;;;;;;;1.00;1.00;;;;;;;;5103919;27;61761;-82
2022/08/13 10:34:22;;;;;;;;;2.67;2.33;;;;;;;;5101177;27;63840;-82
2022/08/13 10:36:49;;;;;;;;;3.00;3.00;;;;;;;;5102552;27;61966;-82
2022/08/13 10:39:14;;;;;;;;;4.00;2.00;;;;;;;;5102674;27;61763;-82
2022/08/13 10:41:43;;;;;;;;;1.67;1.00;;;;;;;;5103555;27;62025;-82
2022/08/13 10:44:09;;;;;;;;;1.67;1.67;;;;;;;;5100272;27;63256;-82
2022/08/13 10:46:35;;;;;;;;;1.67;1.67;;;;;;;;5083181;27;62150;-82
2022/08/13 10:49:01;;;;;;;;;3.00;2.00;;;;;;;;5081025;28;61738;-82
2022/08/13 10:51:27;;;;;;;;;1.67;1.67;;;;;;;;5083191;28;62121;-81
2022/08/13 10:53:55;;;;;;;;;2.33;2.33;;;;;;;;5082023;28;62047;-82
2022/08/13 10:56:21;;;;;;;;;3.00;3.00;;;;;;;;5081827;28;61932;-82
2022/08/13 10:58:47;;;;;;;;;2.00;2.00;;;;;;;;5081917;28;61905;-82
2022/08/13 11:01:12;;;;;;;;;4.00;2.50;;;;;;;;5081761;28;62079;-82
2022/08/13 11:03:38;;;;;;;;;4.00;3.00;;;;;;;;5080048;28;64380;-82
2022/08/13 11:06:04;;;;;;;;;4.00;3.00;;;;;;;;5082838;28;61926;-82
2022/08/13 11:08:39;;;;;;;;;4.00;3.00;;;;;;;;5082947;28;61725;-82
2022/08/13 11:11:09;;;;;;;;;2.00;2.00;;;;;;;;5083368;28;62306;-82
2022/08/13 11:13:36;;;;;;;;;3.67;3.00;;;;;;;;5080560;28;64759;-82
2022/08/13 11:16:02;;;;;;;;;4.00;2.00;;;;;;;;5083206;28;62168;-82
2022/08/13 11:18:28;;;;;;;;;1.33;1.33;;;;;;;;5080585;28;62095;-82
2022/08/13 11:21:02;;;;;;;;;3.00;2.00;;;;;;;;5081588;28;62265;-82
2022/08/13 11:23:31;;;;;;;;;1.00;1.00;;;;;;;;5079920;28;63749;-82
2022/08/13 11:25:56;;;;;;;;;3.00;3.00;;;;;;;;5082726;28;61789;-82
2022/08/13 11:28:22;;;;;;;;;2.00;2.00;;;;;;;;5081466;28;61847;-82
2022/08/13 11:30:48;;;;;;;;;3.00;3.00;;;;;;;;5081152;28;61778;-82
2022/08/13 11:33:14;;;;;;;;;3.00;2.00;;;;;;;;5081495;28;61763;-82
2022/08/13 11:35:43;;;;;;;;;2.33;2.00;;;;;;;;5081194;28;61798;-82
2022/08/13 11:38:13;;;;;;;;;2.00;2.00;;;;;;;;5085098;28;61850;-82
2022/08/13 11:40:38;;;;;;;;;4.00;2.00;;;;;;;;5086302;28;61722;-82
2022/08/13 11:43:03;;;;;;;;;5.00;2.67;;;;;;;;5083831;28;64331;-82
2022/08/13 11:45:29;;;;;;;;;1.33;1.33;;;;;;;;5097756;27;61784;-82
2022/08/13 11:47:54;;;;;;;;;1.67;1.67;;;;;;;;5105155;27;61753;-82
2022/08/13 11:50:19;;;;;;;;;4.00;3.00;;;;;;;;5105327;27;61748;-80
2022/08/13 11:52:45;;;;;;;;;2.00;0.67;;;;;;;;5105604;27;62042;-80
2022/08/13 11:55:10;;;;;;;;;1.00;1.00;;;;;;;;5105963;27;61907;-80
2022/08/13 11:57:35;;;;;;;;;1.67;1.67;;;;;;;;5106394;27;61931;-80
2022/08/13 12:00:02;;;;;;;;;2.00;2.00;;;;;;;;5104802;27;61828;-79
2022/08/13 12:02:27;;;;;;;;;1.00;1.00;;;;;;;;5105411;27;61804;-80
2022/08/13 12:04:53;;;;;;;;;2.00;2.00;;;;;;;;5104103;27;61752;-80
2022/08/13 12:07:18;;;;;;;;;1.00;1.00;;;;;;;;5104770;27;62061;-80
2022/08/13 12:09:44;;;;;;;;;1.67;1.67;;;;;;;;5106362;27;62055;-80
2022/08/13 12:12:09;;;;;;;;;3.33;3.00;;;;;;;;5105510;27;62014;-80
2022/08/13 12:14:34;;;;;;;;;3.33;2.33;;;;;;;;5105362;27;61792;-80
2022/08/13 12:16:59;;;;;;;;;3.00;2.00;;;;;;;;5106430;27;61974;-80
2022/08/13 12:19:25;;;;;;;;;2.00;2.00;;;;;;;;5105766;27;62075;-81
2022/08/13 12:21:50;;;;;;;;;2.00;2.00;;;;;;;;5105018;27;63263;-81
2022/08/13 12:24:15;;;;;;;;;2.00;2.00;;;;;;;;5104137;27;61970;-81
2022/08/13 12:26:40;;;;;;;;;1.33;1.33;;;;;;;;5104176;27;61670;-81
2022/08/13 12:29:06;;;;;;;;;1.00;1.00;;;;;;;;5104225;27;61760;-81
2022/08/13 12:31:31;;;;;;;;;1.00;1.00;;;;;;;;5103550;27;63765;-81
2022/08/13 12:33:56;;;;;;;;;1.00;1.00;;;;;;;;5104080;27;61943;-81
2022/08/13 12:36:21;;;;;;;;;2.67;1.67;;;;;;;;5104309;27;61958;-81
2022/08/13 12:38:47;;;;;;;;;2.00;2.00;;;;;;;;5105808;27;61775;-81
2022/08/13 12:41:12;;;;;;;;;2.00;2.00;;;;;;;;5103355;27;63535;-81
2022/08/13 12:43:38;;;;;;;;;2.00;2.00;;;;;;;;5103493;27;61729;-81
2022/08/13 12:46:03;;;;;;;;;1.00;1.00;;;;;;;;5085351;27;62077;-81
2022/08/13 12:48:30;;;;;;;;;1.33;1.33;;;;;;;;5083128;28;62231;-81
2022/08/13 12:50:55;;;;;;;;;1.67;1.33;;;;;;;;5084336;28;62130;-82
2022/08/13 12:53:21;;;;;;;;;0.67;0.67;;;;;;;;5084358;28;62094;-81
2022/08/13 12:55:46;;;;;;;;;1.00;1.00;;;;;;;;5083493;28;62072;-81
2022/08/13 12:58:13;;;;;;;;;0.33;0.00;;;;;;;;5084862;28;61762;-81
2022/08/13 13:00:38;;;;;;;;;1.00;1.00;;;;;;;;5084061;28;61955;-81
2022/08/13 13:03:03;;;;;;;;;0.33;0.33;;;;;;;;5085113;28;61855;-81
2022/08/13 13:05:29;;;;;;;;;1.67;1.33;;;;;;;;5083042;28;61963;-81
2022/08/13 13:07:55;;;;;;;;;1.67;0.67;;;;;;;;5084921;28;62065;-82
2022/08/13 13:10:20;;;;;;;;;1.00;0.67;;;;;;;;5082711;28;63816;-81
2022/08/13 13:12:45;;;;;;;;;1.00;1.00;;;;;;;;5082585;28;61808;-82
2022/08/13 13:15:10;;;;;;;;;1.00;1.00;;;;;;;;5083348;28;61923;-81
2022/08/13 13:17:38;;;;;;;;;0.00;0.00;;;;;;;;5084709;28;62171;-82
2022/08/13 13:20:03;;;;;;;;;0.67;0.67;;;;;;;;5083592;28;63065;-81
2022/08/13 13:22:29;;;;;;;;;0.67;0.67;;;;;;;;5083011;28;61804;-82
2022/08/13 13:24:55;;;;;;;;;0.67;0.67;;;;;;;;5083990;28;61690;-82
2022/08/13 13:27:21;;;;;;;;;1.67;0.67;;;;;;;;5082868;28;62190;-82
2022/08/13 13:29:47;;;;;;;;;0.33;0.00;;;;;;;;5082402;28;63942;-82
2022/08/13 13:32:13;;;;;;;;;0.33;0.33;;;;;;;;5084227;28;61809;-81
2022/08/13 13:34:38;;;;;;;;;1.00;1.00;;;;;;;;5082432;28;61820;-82
2022/08/13 13:37:04;;;;;;;;;0.00;0.00;;;;;;;;5083347;28;62006;-82
2022/08/13 13:39:29;;;;;;;;;0.67;0.67;;;;;;;;5083867;28;61855;-82
2022/08/13 13:41:54;;;;;;;;;0.00;0.00;;;;;;;;5083681;28;61769;-82
2022/08/13 13:44:20;;;;;;;;;0.67;0.67;;;;;;;;5088252;27;61835;-82
2022/08/13 13:46:45;;;;;;;;;0.67;0.67;;;;;;;;5103163;27;62281;-82
2022/08/13 13:49:10;;;;;;;;;1.67;0.67;;;;;;;;5103864;27;61890;-82
2022/08/13 13:51:35;;;;;;;;;0.00;0.00;;;;;;;;5104636;27;61765;-82
2022/08/13 13:54:01;;;;;;;;;0.00;0.00;;;;;;;;5102445;27;61815;-82
2022/08/13 13:56:26;;;;;;;;;0.33;0.33;;;;;;;;5102850;27;61751;-82
2022/08/13 13:58:52;;;;;;;;;0.33;0.33;;;;;;;;5103147;27;61857;-82
2022/08/13 14:01:18;;;;;;;;;0.33;0.33;;;;;;;;5102629;27;61697;-82
2022/08/13 14:03:43;;;;;;;;;1.00;1.00;;;;;;;;5103832;27;62872;-82
2022/08/13 14:06:16;;;;;;;;;0.00;0.00;;;;;;;;5102959;27;62216;-82
2022/08/13 14:08:43;;;;;;;;;0.00;0.00;;;;;;;;5102137;27;64002;-82
2022/08/13 14:11:09;;;;;;;;;1.00;1.00;;;;;;;;5102518;27;61857;-82
2022/08/13 14:13:34;;;;;;;;;0.67;0.67;;;;;;;;5103943;27;61768;-81
2022/08/13 14:15:59;;;;;;;;;0.33;0.33;;;;;;;;5102823;27;61767;-82
2022/08/13 14:18:26;;;;;;;;;0.67;0.67;;;;;;;;5101978;27;63663;-82
2022/08/13 14:20:53;;;;;;;;;0.00;0.00;;;;;;;;5102241;27;61952;-82
2022/08/13 14:23:19;;;;;;;;;0.33;0.33;;;;;;;;5101967;27;61863;-82
2022/08/13 14:25:45;;;;;;;;;0.67;0.67;;;;;;;;5103699;27;61772;-82
2022/08/13 14:28:12;;;;;;;;;0.33;0.33;;;;;;;;5102169;27;64573;-82
2022/08/13 14:30:41;;;;;;;;;0.00;0.00;;;;;;;;5102540;27;61881;-82
2022/08/13 14:33:07;;;;;;;;;0.67;0.00;;;;;;;;5103510;27;61825;-82
2022/08/13 14:35:32;;;;;;;;;0.67;0.67;;;;;;;;5102362;27;61805;-82
2022/08/13 14:37:57;;;;;;;;;0.00;0.00;;;;;;;;5102992;27;62889;-82
2022/08/13 14:40:23;;;;;;;;;0.00;0.00;;;;;;;;5103644;27;61931;-82
2022/08/13 14:42:50;;;;;;;;;1.00;1.00;;;;;;;;5102112;27;61971;-82
2022/08/13 14:48:01;;;;;;;;;0.67;0.67;;;;;;;;5102778;27;61777;-82
2022/08/13 14:50:28;;;;;;;;;0.67;0.67;;;;;;;;5103371;27;61839;-82
2022/08/13 14:52:56;;;;;;;;;0.33;0.33;;;;;;;;5103310;27;61697;-79
2022/08/13 14:55:22;;;;;;;;;0.67;0.67;;;;;;;;5103481;27;61845;-82
2022/08/13 14:57:48;;;;;;;;;0.00;0.00;;;;;;;;5101595;27;63810;-82
2022/08/13 15:00:14;;;;;;;;;0.00;0.00;;;;;;;;5103734;27;61956;-82